Time;durP1;ratioP1;P1;durP2;ratioP2;P2;SDS_P1;SDS_P2;PMS_P1;PMS_P2;Temp;Humidity;BMP_temperature;BMP_pressure;BME280_temperature;BME280_humidity;BME280_pressure;Samples;Min_cycle;Max_cycle;Signal;HPM_P1;HPM_P2
2021/10/07 00:02:16;;;;;;;7.70;4.75;;;14.60;69.60;;;;;;5071652;28;20158;-65
2021/10/07 00:04:42;;;;;;;5.72;4.38;;;14.60;69.80;;;;;;5071835;28;20028;-66
2021/10/07 00:07:08;;;;;;;8.75;3.60;;;14.60;69.80;;;;;;5063376;28;20025;-66
2021/10/07 00:09:34;;;;;;;5.57;3.97;;;14.60;69.90;;;;;;5056010;28;20025;-65
2021/10/07 00:12:00;;;;;;;5.32;3.58;;;14.60;69.90;;;;;;5055822;28;20031;-66
2021/10/07 00:14:26;;;;;;;5.10;3.63;;;14.60;69.90;;;;;;5055846;28;20037;-66
2021/10/07 00:16:52;;;;;;;5.88;4.00;;;14.60;69.90;;;;;;5055817;28;20029;-65
2021/10/07 00:19:17;;;;;;;5.85;4.30;;;14.60;69.90;;;;;;5055757;28;20112;-65
2021/10/07 00:21:43;;;;;;;3.88;3.47;;;14.60;69.90;;;;;;5055332;28;20405;-66
2021/10/07 00:24:11;;;;;;;3.90;3.30;;;14.60;69.90;;;;;;5055764;28;20045;-65
2021/10/07 00:26:42;;;;;;;4.88;3.50;;;14.70;70.10;;;;;;5055877;28;20017;-66
2021/10/07 00:32:00;;;;;;;11.13;5.05;;;14.70;70.10;;;;;;5058808;28;20082;-66
2021/10/07 00:39:03;;;;;;;9.73;4.43;;;14.70;70.00;;;;;;5085331;28;20060;-66
2021/10/07 00:40:13;;;;;;;5.72;4.53;;;14.70;70.00;;;;;;5076137;28;20074;-66
2021/10/07 00:42:39;;;;;;;5.90;3.97;;;14.70;70.10;;;;;;5076239;28;20040;-65
2021/10/07 00:45:05;;;;;;;4.50;3.90;;;14.70;70.00;;;;;;5076292;28;20032;-65
2021/10/07 00:47:31;;;;;;;7.88;4.85;;;14.70;70.00;;;;;;5076156;28;20104;-65
2021/10/07 00:49:57;;;;;;;6.32;4.65;;;14.70;70.00;;;;;;5076189;28;20096;-66
2021/10/07 00:52:22;;;;;;;5.18;4.40;;;14.70;69.90;;;;;;5058530;28;20086;-65
2021/10/07 00:54:54;;;;;;;5.28;4.38;;;14.70;69.80;;;;;;5056034;28;20029;-66
2021/10/07 00:57:22;;;;;;;13.77;5.35;;;14.70;69.90;;;;;;5056114;28;20100;-65
2021/10/07 00:59:49;;;;;;;6.85;4.70;;;14.70;69.80;;;;;;5055812;28;20540;-65
2021/10/07 01:02:16;;;;;;;6.95;5.95;;;14.70;69.80;;;;;;5055566;28;20035;-66
2021/10/07 01:04:42;;;;;;;5.05;4.47;;;14.60;69.70;;;;;;5055676;28;20033;-66
2021/10/07 01:07:09;;;;;;;10.02;5.90;;;14.60;69.80;;;;;;5055688;28;20025;-66
2021/10/07 01:09:35;;;;;;;6.10;5.20;;;14.60;69.80;;;;;;5055772;28;20087;-65
2021/10/07 01:12:03;;;;;;;8.40;5.85;;;14.60;69.90;;;;;;5055646;28;20138;-66
2021/10/07 01:14:35;;;;;;;6.80;5.90;;;14.60;69.80;;;;;;5055569;28;20051;-66
2021/10/07 01:17:01;;;;;;;7.53;5.53;;;14.60;70.70;;;;;;5055528;28;20021;-66
2021/10/07 01:19:28;;;;;;;7.80;6.00;;;14.60;70.00;;;;;;5054567;28;20390;-65
2021/10/07 01:21:57;;;;;;;10.60;7.82;;;14.60;70.00;;;;;;5055208;28;20467;-65
2021/10/07 01:24:24;;;;;;;8.55;6.75;;;14.60;69.90;;;;;;5055426;28;20021;-65
2021/10/07 01:26:49;;;;;;;8.77;7.55;;;14.60;69.90;;;;;;5055290;28;20049;-66
2021/10/07 01:29:15;;;;;;;13.30;9.65;;;14.60;69.90;;;;;;5054953;28;20063;-65
2021/10/07 01:31:41;;;;;;;11.68;8.77;;;14.60;69.80;;;;;;5055264;28;20040;-65
2021/10/07 01:34:07;;;;;;;9.30;7.57;;;14.60;69.80;;;;;;5055320;28;20032;-65
2021/10/07 01:36:33;;;;;;;15.50;8.70;;;14.60;69.90;;;;;;5055021;28;20021;-66
2021/10/07 01:38:58;;;;;;;12.52;9.07;;;14.60;70.00;;;;;;5055101;28;20060;-65
2021/10/07 01:41:24;;;;;;;11.27;9.27;;;14.60;70.00;;;;;;5055061;28;20074;-65
2021/10/07 01:43:55;;;;;;;12.50;9.55;;;14.60;70.00;;;;;;5055049;28;20025;-65
2021/10/07 01:46:21;;;;;;;10.68;9.13;;;14.60;69.90;;;;;;5055137;28;20029;-65
2021/10/07 01:48:47;;;;;;;9.82;7.35;;;14.50;70.00;;;;;;5054985;28;20031;-65
2021/10/07 01:51:12;;;;;;;11.27;8.07;;;14.50;70.10;;;;;;5054857;28;20025;-65
2021/10/07 01:53:38;;;;;;;15.30;7.32;;;14.50;70.20;;;;;;5054892;28;20103;-65
2021/10/07 01:56:04;;;;;;;9.63;7.15;;;14.50;70.10;;;;;;5057363;28;20023;-65
2021/10/07 01:58:30;;;;;;;8.82;6.60;;;14.50;70.20;;;;;;5074880;28;20108;-65
2021/10/07 02:00:56;;;;;;;8.80;6.75;;;14.50;70.20;;;;;;5058690;28;20441;-65
2021/10/07 02:03:22;;;;;;;9.98;7.45;;;14.50;70.30;;;;;;5070401;28;20068;-65
2021/10/07 02:05:47;;;;;;;9.23;8.27;;;14.50;70.30;;;;;;5053674;28;20031;-65
2021/10/07 02:08:13;;;;;;;9.80;8.65;;;14.50;70.30;;;;;;5053747;28;20025;-65
2021/10/07 02:10:39;;;;;;;10.40;8.43;;;14.40;70.20;;;;;;5053763;28;20032;-65
2021/10/07 02:13:05;;;;;;;9.85;7.57;;;14.50;70.20;;;;;;5053646;28;20017;-64
2021/10/07 02:15:31;;;;;;;12.18;9.10;;;14.50;70.30;;;;;;5053663;28;20359;-64
2021/10/07 02:17:57;;;;;;;13.63;7.57;;;14.50;70.20;;;;;;5053606;28;20052;-65
2021/10/07 02:20:22;;;;;;;10.10;8.52;;;14.50;70.20;;;;;;5053842;28;20044;-66
2021/10/07 02:22:48;;;;;;;14.63;9.70;;;14.50;70.20;;;;;;5053493;28;20120;-65
2021/10/07 02:25:14;;;;;;;12.35;9.88;;;14.50;70.10;;;;;;5053670;28;20115;-65
2021/10/07 02:27:40;;;;;;;11.30;8.98;;;14.50;70.00;;;;;;5053564;28;20436;-66
2021/10/07 02:30:08;;;;;;;12.43;9.90;;;14.50;70.10;;;;;;5052271;28;20025;-66
2021/10/07 02:32:34;;;;;;;13.13;9.68;;;14.50;70.10;;;;;;5053485;28;20021;-66
2021/10/07 02:35:00;;;;;;;12.45;9.65;;;14.50;70.00;;;;;;5052060;28;20036;-66
2021/10/07 02:37:26;;;;;;;11.68;8.45;;;14.60;69.80;;;;;;5053290;28;20483;-65
2021/10/07 02:39:52;;;;;;;11.23;8.35;;;14.60;69.90;;;;;;5053125;28;20035;-65
2021/10/07 02:42:17;;;;;;;8.18;6.38;;;14.60;69.90;;;;;;5053162;28;20029;-65
2021/10/07 02:44:43;;;;;;;8.25;6.60;;;14.60;70.10;;;;;;5053116;28;20029;-65
2021/10/07 02:47:09;;;;;;;6.60;5.90;;;14.60;70.10;;;;;;5053065;28;20053;-65
2021/10/07 02:49:35;;;;;;;9.57;6.05;;;14.60;70.20;;;;;;5052943;28;20100;-65
2021/10/07 02:52:00;;;;;;;6.43;5.55;;;14.60;70.20;;;;;;5053048;28;20104;-65
2021/10/07 02:54:26;;;;;;;7.63;6.18;;;14.70;70.30;;;;;;5052945;28;20028;-65
2021/10/07 02:56:52;;;;;;;7.93;5.65;;;14.70;70.30;;;;;;5052845;28;20441;-65
2021/10/07 02:59:18;;;;;;;7.07;5.65;;;14.70;70.20;;;;;;5052738;28;20036;-65
2021/10/07 03:01:43;;;;;;;7.35;5.80;;;14.70;70.30;;;;;;5052669;28;20032;-65
2021/10/07 03:04:09;;;;;;;8.18;5.75;;;14.70;70.10;;;;;;5052592;28;20052;-65
2021/10/07 03:06:35;;;;;;;9.02;5.78;;;14.70;69.90;;;;;;5052712;28;20025;-65
2021/10/07 03:09:02;;;;;;;7.80;5.95;;;14.70;69.90;;;;;;5052861;28;20055;-65
2021/10/07 03:11:28;;;;;;;10.55;6.13;;;14.70;70.10;;;;;;5052671;28;20029;-65
2021/10/07 03:13:54;;;;;;;6.15;5.55;;;14.70;70.00;;;;;;5052845;28;20116;-65
2021/10/07 03:16:19;;;;;;;7.00;5.70;;;14.70;69.90;;;;;;5052601;28;20039;-65
2021/10/07 03:18:45;;;;;;;7.72;6.00;;;14.70;69.80;;;;;;5052348;28;20033;-65
2021/10/07 03:21:11;;;;;;;7.75;6.25;;;14.70;69.80;;;;;;5052208;28;20032;-65
2021/10/07 03:23:37;;;;;;;7.70;6.15;;;14.70;69.70;;;;;;5052394;28;20489;-66
2021/10/07 03:26:02;;;;;;;5.53;5.03;;;14.60;69.60;;;;;;5052376;28;20505;-65
2021/10/07 03:28:28;;;;;;;7.22;6.28;;;14.60;69.70;;;;;;5052340;28;20091;-65
2021/10/07 03:30:54;;;;;;;8.35;6.00;;;14.60;69.70;;;;;;5052138;28;20032;-65
2021/10/07 03:33:20;;;;;;;6.82;5.25;;;14.60;69.50;;;;;;5050998;28;20025;-65
2021/10/07 03:35:45;;;;;;;9.40;5.90;;;14.60;69.60;;;;;;5052140;28;20028;-66
2021/10/07 03:38:11;;;;;;;12.25;6.25;;;14.60;69.70;;;;;;5052236;28;20122;-66
2021/10/07 03:40:37;;;;;;;7.00;5.55;;;14.60;69.80;;;;;;5050464;28;20033;-65
2021/10/07 03:43:03;;;;;;;6.43;5.30;;;14.60;69.80;;;;;;5051933;28;20126;-65
2021/10/07 03:45:29;;;;;;;7.45;4.50;;;14.60;70.00;;;;;;5052102;28;20040;-66
2021/10/07 03:47:55;;;;;;;6.40;5.65;;;14.70;70.90;;;;;;5052097;28;20061;-66
2021/10/07 03:50:21;;;;;;;7.20;5.45;;;14.70;70.20;;;;;;5052155;28;20474;-65
2021/10/07 03:52:46;;;;;;;7.53;5.57;;;14.70;70.20;;;;;;5051967;28;20037;-66
2021/10/07 03:55:12;;;;;;;10.75;6.05;;;14.70;70.20;;;;;;5051885;28;20021;-66
2021/10/07 03:57:38;;;;;;;10.68;7.32;;;14.70;70.10;;;;;;5051995;28;20029;-66
2021/10/07 04:00:06;;;;;;;7.63;6.28;;;14.80;70.00;;;;;;5051863;28;20074;-66
2021/10/07 04:02:32;;;;;;;9.07;7.05;;;14.80;69.70;;;;;;5051634;28;20124;-66
2021/10/07 04:05:02;;;;;;;9.27;7.45;;;14.80;69.70;;;;;;5051778;28;20498;-65
2021/10/07 04:07:28;;;;;;;7.20;6.32;;;14.80;69.70;;;;;;5051935;28;20017;-66
2021/10/07 04:09:54;;;;;;;9.18;5.80;;;14.80;69.70;;;;;;5051904;28;20032;-66
2021/10/07 04:12:19;;;;;;;9.75;5.95;;;14.80;70.00;;;;;;5051738;28;20096;-66
2021/10/07 04:14:45;;;;;;;8.07;6.25;;;14.80;70.00;;;;;;5051800;28;20112;-66
2021/10/07 04:17:11;;;;;;;9.15;6.88;;;14.90;69.90;;;;;;5051822;28;20021;-67
2021/10/07 04:19:37;;;;;;;8.20;6.30;;;14.90;69.80;;;;;;5051566;28;20090;-67
2021/10/07 04:22:03;;;;;;;7.60;6.38;;;14.90;69.70;;;;;;5063362;28;20029;-67
2021/10/07 04:24:29;;;;;;;8.02;6.30;;;14.90;69.60;;;;;;5071792;28;20036;-67
2021/10/07 04:26:54;;;;;;;12.77;8.02;;;14.90;69.60;;;;;;5071690;28;20029;-66
2021/10/07 04:29:20;;;;;;;9.43;6.45;;;14.90;69.60;;;;;;5071022;28;20021;-67
2021/10/07 04:31:46;;;;;;;10.30;7.18;;;14.80;69.60;;;;;;5071685;28;20386;-67
2021/10/07 04:34:12;;;;;;;9.75;7.40;;;14.80;69.60;;;;;;5055548;28;20033;-66
2021/10/07 04:36:40;;;;;;;12.93;8.65;;;14.80;69.50;;;;;;5050348;28;20049;-66
2021/10/07 04:39:06;;;;;;;12.20;7.40;;;14.80;69.20;;;;;;5051608;28;20111;-67
2021/10/07 04:41:31;;;;;;;9.25;6.18;;;14.80;69.20;;;;;;5051517;28;20107;-66
2021/10/07 04:43:57;;;;;;;7.88;6.68;;;14.80;69.50;;;;;;5051386;28;20033;-66
2021/10/07 04:46:23;;;;;;;12.15;7.85;;;14.80;69.40;;;;;;5051199;28;20490;-66
2021/10/07 04:48:50;;;;;;;10.10;7.32;;;14.80;69.30;;;;;;5050210;28;20119;-67
2021/10/07 04:51:16;;;;;;;10.98;8.07;;;14.80;69.20;;;;;;5050277;28;20032;-66
2021/10/07 04:53:42;;;;;;;12.32;8.18;;;14.80;69.00;;;;;;5052943;28;20025;-66
2021/10/07 04:56:08;;;;;;;9.75;7.28;;;14.80;68.90;;;;;;5055239;28;20509;-66
2021/10/07 04:58:34;;;;;;;8.98;7.25;;;14.80;69.20;;;;;;5055154;28;20033;-66
2021/10/07 05:01:00;;;;;;;12.35;7.85;;;14.70;69.10;;;;;;5055151;28;20018;-66
2021/10/07 05:03:26;;;;;;;9.02;7.85;;;14.80;69.30;;;;;;5054895;28;20037;-66
2021/10/07 05:05:52;;;;;;;9.15;7.32;;;14.80;69.40;;;;;;5054942;28;20033;-66
2021/10/07 05:08:18;;;;;;;11.23;7.18;;;14.70;69.40;;;;;;5055006;28;20021;-66
2021/10/07 05:10:45;;;;;;;14.07;8.20;;;14.70;69.50;;;;;;5054851;28;20554;-66
2021/10/07 05:13:11;;;;;;;11.98;6.90;;;14.70;69.50;;;;;;5062635;28;20051;-66
2021/10/07 05:15:37;;;;;;;12.40;7.20;;;14.70;69.80;;;;;;5074674;28;20029;-66
2021/10/07 05:18:03;;;;;;;10.80;8.35;;;14.70;70.00;;;;;;5067844;28;20104;-66
2021/10/07 05:20:29;;;;;;;11.50;7.15;;;14.70;70.00;;;;;;5054487;28;20074;-66
2021/10/07 05:22:55;;;;;;;13.45;7.53;;;14.70;70.00;;;;;;5054402;28;20139;-66
2021/10/07 05:25:21;;;;;;;11.57;8.35;;;14.70;70.10;;;;;;5072391;28;20074;-66
2021/10/07 05:27:47;;;;;;;17.40;8.88;;;14.70;70.20;;;;;;5074570;28;20448;-66
2021/10/07 05:30:12;;;;;;;12.57;8.73;;;14.70;70.10;;;;;;5073061;28;20029;-67
2021/10/07 05:32:38;;;;;;;12.15;9.27;;;14.70;69.90;;;;;;5070478;28;20796;-66
2021/10/07 05:35:05;;;;;;;12.70;9.27;;;14.70;69.90;;;;;;5054411;28;20033;-67
2021/10/07 05:37:31;;;;;;;11.07;8.57;;;14.60;69.90;;;;;;5054353;28;20029;-66
2021/10/07 05:39:57;;;;;;;13.20;8.55;;;14.60;69.90;;;;;;5053995;28;20028;-66
2021/10/07 05:42:23;;;;;;;11.70;8.70;;;14.60;70.10;;;;;;5053659;28;20025;-67
2021/10/07 05:44:49;;;;;;;15.05;8.30;;;14.60;70.00;;;;;;5052670;28;20040;-67
2021/10/07 05:47:15;;;;;;;12.88;8.35;;;14.50;70.40;;;;;;5053857;28;20041;-67
2021/10/07 05:49:41;;;;;;;11.23;7.90;;;14.50;70.30;;;;;;5053944;28;20094;-66
2021/10/07 05:52:07;;;;;;;12.02;8.05;;;14.50;70.50;;;;;;5053431;28;20079;-66
2021/10/07 05:54:33;;;;;;;8.90;7.38;;;14.50;70.70;;;;;;5053647;28;20051;-66
2021/10/07 05:56:59;;;;;;;8.00;6.43;;;14.50;70.90;;;;;;5053828;28;20040;-66
2021/10/07 05:59:25;;;;;;;9.57;7.40;;;14.50;71.10;;;;;;5053156;28;20475;-66
2021/10/07 06:01:51;;;;;;;8.25;6.68;;;14.50;71.20;;;;;;5054468;28;20151;-67
2021/10/07 06:04:17;;;;;;;8.02;6.63;;;14.50;71.30;;;;;;5053056;28;20447;-66
2021/10/07 06:06:45;;;;;;;12.10;8.10;;;14.60;71.50;;;;;;5054530;28;20021;-67
2021/10/07 06:09:12;;;;;;;8.88;6.72;;;14.60;71.50;;;;;;5054309;28;20155;-66
2021/10/07 06:11:38;;;;;;;7.78;6.63;;;14.60;71.50;;;;;;5054512;28;20021;-66
2021/10/07 06:14:05;;;;;;;8.85;6.65;;;14.60;71.40;;;;;;5053028;28;20041;-67
2021/10/07 06:16:38;;;;;;;8.25;6.55;;;14.70;71.50;;;;;;5054288;28;20021;-65
2021/10/07 06:19:07;;;;;;;11.13;7.30;;;14.70;71.40;;;;;;5053440;28;20029;-66
2021/10/07 06:21:33;;;;;;;8.30;6.93;;;14.70;71.20;;;;;;5054213;28;20025;-66
2021/10/07 06:23:59;;;;;;;8.43;6.55;;;14.80;71.70;;;;;;5054261;28;20104;-66
2021/10/07 06:26:26;;;;;;;10.15;7.30;;;14.70;71.90;;;;;;5054101;28;20088;-65
2021/10/07 06:28:51;;;;;;;8.38;6.80;;;14.70;71.50;;;;;;5053171;28;20028;-67
2021/10/07 06:31:17;;;;;;;9.73;7.50;;;14.70;71.30;;;;;;5053248;28;20521;-66
2021/10/07 06:33:43;;;;;;;10.50;7.50;;;14.70;71.10;;;;;;5053929;28;20017;-66
2021/10/07 06:36:09;;;;;;;10.32;7.38;;;14.70;71.10;;;;;;5054079;28;20029;-66
2021/10/07 06:38:35;;;;;;;12.02;8.48;;;14.70;71.10;;;;;;5053474;28;20028;-67
2021/10/07 06:41:01;;;;;;;9.27;7.00;;;14.70;71.10;;;;;;5053756;28;20378;-67
2021/10/07 06:43:27;;;;;;;12.88;8.13;;;14.70;71.10;;;;;;5053572;28;20070;-67
2021/10/07 06:45:53;;;;;;;11.30;8.55;;;14.70;71.60;;;;;;5053977;28;20022;-65
2021/10/07 06:48:18;;;;;;;11.77;8.73;;;14.70;71.20;;;;;;5053626;28;20060;-66
2021/10/07 06:50:45;;;;;;;10.55;8.18;;;14.70;71.20;;;;;;5053818;28;20021;-67
2021/10/07 06:53:11;;;;;;;16.20;10.13;;;14.70;71.30;;;;;;5053824;28;20025;-67
2021/10/07 06:55:38;;;;;;;12.63;8.38;;;14.70;71.20;;;;;;5053598;28;20466;-67
2021/10/07 06:58:06;;;;;;;11.00;8.93;;;14.70;71.20;;;;;;5053264;28;20107;-67
2021/10/07 07:00:32;;;;;;;14.25;9.50;;;14.70;71.10;;;;;;5053363;28;20025;-67
2021/10/07 07:02:58;;;;;;;13.65;9.18;;;14.70;71.00;;;;;;5053018;28;20056;-66
2021/10/07 07:05:26;;;;;;;14.85;9.57;;;14.70;71.20;;;;;;5053324;28;20028;-66
2021/10/07 07:07:52;;;;;;;11.68;8.80;;;14.70;71.10;;;;;;5053190;28;20051;-67
2021/10/07 07:10:19;;;;;;;11.93;9.15;;;14.70;71.00;;;;;;5055564;28;20432;-66
2021/10/07 07:12:46;;;;;;;13.05;8.23;;;14.70;71.20;;;;;;5051789;28;20037;-66
2021/10/07 07:15:13;;;;;;;10.07;8.07;;;14.60;71.00;;;;;;5053058;28;20035;-66
2021/10/07 07:17:39;;;;;;;11.27;9.20;;;14.70;71.10;;;;;;5052237;28;20025;-66
2021/10/07 07:20:06;;;;;;;10.10;8.10;;;14.70;71.20;;;;;;5052908;28;20029;-66
2021/10/07 07:22:32;;;;;;;10.80;8.85;;;14.70;71.70;;;;;;5052421;28;20104;-66
2021/10/07 07:24:58;;;;;;;11.32;8.85;;;14.70;71.50;;;;;;5067480;28;20075;-67
2021/10/07 07:27:24;;;;;;;9.00;7.93;;;14.70;71.50;;;;;;5072742;28;20029;-66
2021/10/07 07:29:50;;;;;;;9.10;8.00;;;14.70;71.60;;;;;;5071118;28;20100;-66
2021/10/07 07:32:17;;;;;;;10.93;8.75;;;14.70;71.80;;;;;;5072840;28;20052;-66
2021/10/07 07:34:43;;;;;;;10.80;8.07;;;14.70;71.90;;;;;;5072734;28;20067;-66
2021/10/07 07:37:08;;;;;;;10.25;8.60;;;14.70;71.90;;;;;;5072834;28;20055;-66
2021/10/07 07:39:35;;;;;;;11.10;8.57;;;14.70;71.80;;;;;;5072381;28;20036;-65
2021/10/07 07:42:01;;;;;;;12.32;9.52;;;14.70;71.70;;;;;;5072519;28;20115;-65
2021/10/07 07:44:27;;;;;;;10.63;8.70;;;14.80;71.90;;;;;;5072738;28;20092;-66
2021/10/07 07:46:53;;;;;;;16.70;9.80;;;14.70;71.90;;;;;;5072907;28;20370;-66
2021/10/07 07:49:19;;;;;;;10.38;8.85;;;14.70;71.80;;;;;;5072791;28;20036;-65
2021/10/07 07:51:45;;;;;;;12.45;10.13;;;14.70;71.80;;;;;;5072690;28;20024;-65
2021/10/07 07:54:11;;;;;;;13.60;9.57;;;14.70;71.90;;;;;;5057466;28;20068;-66
2021/10/07 07:56:37;;;;;;;10.57;9.48;;;14.70;72.10;;;;;;5052353;28;20033;-65
2021/10/07 07:59:03;;;;;;;13.68;10.50;;;14.70;72.30;;;;;;5066240;28;20443;-65
2021/10/07 08:01:31;;;;;;;15.68;9.88;;;14.60;72.40;;;;;;5071084;28;20036;-65
2021/10/07 08:03:56;;;;;;;11.95;9.32;;;14.60;72.30;;;;;;5072126;28;20045;-64
2021/10/07 08:06:22;;;;;;;14.18;9.27;;;14.60;72.30;;;;;;5072406;28;20025;-64
2021/10/07 08:08:48;;;;;;;12.93;9.50;;;14.60;72.50;;;;;;5072207;28;20099;-65
2021/10/07 08:11:14;;;;;;;12.60;9.07;;;14.60;72.60;;;;;;5071849;28;20380;-65
2021/10/07 08:13:39;;;;;;;11.07;9.02;;;14.60;73.00;;;;;;5072371;28;20028;-64
2021/10/07 08:16:05;;;;;;;14.20;9.93;;;14.60;73.20;;;;;;5072251;28;20111;-66
2021/10/07 08:18:31;;;;;;;12.60;7.90;;;14.60;73.00;;;;;;5064608;28;20025;-65
2021/10/07 08:20:57;;;;;;;12.82;8.30;;;14.60;73.50;;;;;;5052179;28;20029;-65
2021/10/07 08:23:25;;;;;;;9.05;7.68;;;14.60;73.90;;;;;;5060105;28;20024;-65
2021/10/07 08:25:51;;;;;;;8.80;6.97;;;14.70;73.80;;;;;;5053031;28;20021;-65
2021/10/07 08:28:17;;;;;;;13.82;7.80;;;14.70;73.70;;;;;;5053058;28;20078;-66
2021/10/07 08:30:43;;;;;;;11.30;6.90;;;14.70;73.50;;;;;;5055884;28;20020;-64
2021/10/07 08:33:08;;;;;;;13.40;7.93;;;14.80;73.50;;;;;;5063177;28;20028;-65
2021/10/07 08:35:34;;;;;;;9.75;7.15;;;14.80;73.40;;;;;;5056278;28;20029;-64
2021/10/07 08:38:00;;;;;;;9.75;7.15;;;14.80;73.20;;;;;;5056405;28;20028;-64
2021/10/07 08:40:26;;;;;;;10.25;7.53;;;14.80;73.20;;;;;;5060473;28;20128;-65
2021/10/07 08:42:52;;;;;;;10.15;7.13;;;14.90;72.90;;;;;;5060359;28;20032;-64
2021/10/07 08:45:18;;;;;;;10.82;7.32;;;14.80;72.50;;;;;;5058488;28;20021;-65
2021/10/07 08:47:46;;;;;;;9.63;7.22;;;14.80;72.40;;;;;;5058064;28;20017;-65
2021/10/07 08:50:15;;;;;;;10.57;7.03;;;14.80;72.20;;;;;;5056329;28;20021;-65
2021/10/07 08:52:41;;;;;;;10.55;6.78;;;14.70;71.90;;;;;;5070747;28;20052;-65
2021/10/07 08:55:07;;;;;;;13.45;7.07;;;14.80;72.20;;;;;;5063158;28;20063;-65
2021/10/07 08:57:33;;;;;;;11.65;7.50;;;14.70;72.10;;;;;;5065551;28;20021;-65
2021/10/07 08:59:59;;;;;;;9.40;7.15;;;14.70;72.10;;;;;;5066952;28;20114;-66
2021/10/07 09:02:28;;;;;;;8.98;7.07;;;14.70;72.10;;;;;;5066945;28;20076;-66
2021/10/07 09:04:54;;;;;;;10.77;7.03;;;14.70;72.40;;;;;;5062316;28;20031;-64
2021/10/07 09:07:21;;;;;;;9.32;7.05;;;14.60;72.50;;;;;;5067154;28;20017;-64
2021/10/07 09:09:47;;;;;;;13.48;7.22;;;14.70;73.10;;;;;;5071733;28;20370;-64
2021/10/07 09:12:15;;;;;;;10.43;7.20;;;14.60;73.30;;;;;;5071739;28;20017;-66
2021/10/07 09:14:46;;;;;;;10.77;7.03;;;14.60;73.50;;;;;;5061790;28;20145;-65
2021/10/07 09:17:14;;;;;;;13.40;8.20;;;14.60;73.50;;;;;;5056747;28;20025;-68
2021/10/07 09:19:46;;;;;;;11.43;8.45;;;14.60;73.10;;;;;;5055503;28;20017;-65
2021/10/07 09:22:15;;;;;;;10.82;6.82;;;14.60;73.20;;;;;;5058208;28;20029;-65
2021/10/07 09:24:44;;;;;;;10.40;7.32;;;14.50;73.40;;;;;;5054034;28;20382;-64
2021/10/07 09:27:18;;;;;;;10.63;7.30;;;14.50;73.50;;;;;;5060893;28;20024;-65
2021/10/07 09:29:50;;;;;;;8.73;6.80;;;14.50;73.70;;;;;;5074273;28;20025;-65
2021/10/07 09:32:36;;;;;;;8.93;7.05;;;14.50;73.60;;;;;;5074392;28;20028;-65
2021/10/07 09:35:05;;;;;;;8.73;6.45;;;14.50;73.70;;;;;;5074254;28;20020;-64
2021/10/07 09:37:33;;;;;;;8.98;6.28;;;14.50;73.50;;;;;;5074348;28;20028;-65
2021/10/07 09:40:17;;;;;;;8.82;7.03;;;14.50;73.70;;;;;;5068804;28;20036;-66
2021/10/07 09:42:48;;;;;;;10.25;6.93;;;14.50;74.00;;;;;;5053996;28;20036;-66
2021/10/07 09:45:19;;;;;;;10.43;6.90;;;14.60;74.30;;;;;;5054136;28;20032;-66
2021/10/07 09:47:52;;;;;;;11.43;6.70;;;14.60;74.80;;;;;;5054015;28;20017;-66
2021/10/07 09:50:28;;;;;;;10.98;6.80;;;14.60;74.60;;;;;;5068061;28;20032;-66
2021/10/07 09:53:16;;;;;;;8.57;6.38;;;14.70;74.70;;;;;;5061695;28;20497;-66
2021/10/07 09:55:50;;;;;;;10.35;7.00;;;14.80;75.00;;;;;;5058550;28;20078;-66
2021/10/07 09:58:21;;;;;;;8.65;5.53;;;14.80;75.00;;;;;;5064433;28;20036;-66
2021/10/07 10:00:52;;;;;;;9.50;6.65;;;14.90;75.00;;;;;;5055544;28;20032;-65
2021/10/07 10:03:19;;;;;;;8.05;5.82;;;15.00;75.00;;;;;;5061853;28;20040;-67
2021/10/07 10:05:46;;;;;;;8.05;5.88;;;15.10;74.80;;;;;;5059085;28;20025;-65
2021/10/07 10:08:14;;;;;;;7.45;5.88;;;15.10;74.80;;;;;;5057372;28;20036;-65
2021/10/07 10:10:41;;;;;;;7.57;5.93;;;15.20;74.40;;;;;;5058525;28;20063;-67
2021/10/07 10:13:08;;;;;;;12.45;6.07;;;15.20;74.20;;;;;;5061030;28;20364;-65
2021/10/07 10:15:37;;;;;;;14.57;5.50;;;15.20;73.80;;;;;;5053614;28;20039;-65
2021/10/07 10:18:14;;;;;;;6.05;4.68;;;15.30;73.90;;;;;;5066354;28;20028;-66
2021/10/07 10:20:51;;;;;;;15.65;5.97;;;15.30;74.10;;;;;;5053310;28;20099;-66
2021/10/07 10:23:21;;;;;;;6.30;4.55;;;15.30;73.90;;;;;;5056694;28;20154;-64
2021/10/07 10:25:58;;;;;;;8.32;5.07;;;15.40;73.80;;;;;;5057700;28;20028;-64
2021/10/07 10:28:50;;;;;;;8.50;4.85;;;15.50;73.70;;;;;;5053456;28;20024;-66
2021/10/07 10:31:39;;;;;;;7.57;4.63;;;15.50;73.20;;;;;;5053373;28;20025;-66
2021/10/07 10:34:13;;;;;;;8.15;4.95;;;15.50;73.10;;;;;;5055812;28;20328;-66
2021/10/07 10:36:48;;;;;;;6.43;4.95;;;15.50;72.90;;;;;;5073249;28;20051;-66
2021/10/07 10:39:20;;;;;;;6.80;4.22;;;15.60;72.90;;;;;;5073157;28;20071;-66
2021/10/07 10:41:55;;;;;;;7.07;5.20;;;15.60;72.40;;;;;;5073049;28;20020;-66
2021/10/07 10:44:28;;;;;;;5.68;4.03;;;15.60;72.00;;;;;;5070279;28;20032;-66
2021/10/07 10:47:14;;;;;;;6.70;4.07;;;15.60;72.00;;;;;;5051818;28;20501;-66
2021/10/07 10:49:48;;;;;;;11.32;4.63;;;15.60;71.80;;;;;;5052936;28;20048;-64
2021/10/07 10:52:25;;;;;;;8.15;4.68;;;15.60;71.10;;;;;;5052019;28;20024;-66
2021/10/07 10:54:57;;;;;;;12.07;4.53;;;15.70;71.60;;;;;;5057071;28;20067;-66
2021/10/07 10:57:39;;;;;;;8.25;4.72;;;15.70;70.80;;;;;;5052250;28;20032;-65
2021/10/07 11:00:30;;;;;;;6.55;4.07;;;15.70;70.70;;;;;;5053364;28;20552;-65
2021/10/07 11:03:08;;;;;;;8.57;4.75;;;15.70;70.70;;;;;;5053353;28;20091;-66
2021/10/07 11:05:41;;;;;;;5.05;3.85;;;15.70;70.30;;;;;;5053654;28;20074;-65
2021/10/07 11:08:13;;;;;;;10.80;4.13;;;15.60;69.90;;;;;;5053697;28;20025;-64
2021/10/07 11:11:00;;;;;;;5.85;3.97;;;15.60;69.50;;;;;;5053266;28;20032;-66
2021/10/07 11:13:30;;;;;;;6.75;4.15;;;15.60;69.50;;;;;;5053777;28;20032;-67
2021/10/07 11:16:00;;;;;;;8.48;3.60;;;15.70;69.40;;;;;;5053352;28;20053;-65
2021/10/07 11:18:28;;;;;;;4.90;3.67;;;15.70;69.60;;;;;;5054126;28;20020;-68
2021/10/07 11:21:12;;;;;;;17.48;3.78;;;15.70;69.60;;;;;;5053142;28;20021;-67
2021/10/07 11:23:38;;;;;;;7.05;3.80;;;15.70;69.50;;;;;;5053033;28;20108;-68
2021/10/07 11:26:05;;;;;;;6.20;3.97;;;15.80;69.50;;;;;;5051953;28;20025;-67
2021/10/07 11:28:35;;;;;;;5.40;3.80;;;15.80;68.80;;;;;;5053225;28;20048;-66
2021/10/07 11:31:06;;;;;;;6.15;3.95;;;15.80;68.80;;;;;;5053154;28;20482;-67
2021/10/07 11:33:33;;;;;;;4.95;3.40;;;15.80;68.90;;;;;;5053030;28;20374;-67
2021/10/07 11:36:03;;;;;;;6.70;3.83;;;15.80;69.20;;;;;;5051801;28;20067;-67
2021/10/07 11:38:29;;;;;;;4.82;3.55;;;15.80;69.20;;;;;;5052918;28;20040;-68
2021/10/07 11:40:56;;;;;;;5.22;4.35;;;15.80;69.00;;;;;;5051692;28;20036;-68
2021/10/07 11:43:27;;;;;;;6.97;4.88;;;15.70;68.50;;;;;;5052615;28;20035;-68
2021/10/07 11:45:55;;;;;;;5.80;4.40;;;15.70;68.20;;;;;;5052743;28;20027;-67
2021/10/07 11:48:22;;;;;;;8.77;4.63;;;15.70;68.80;;;;;;5052531;28;20025;-68
2021/10/07 11:51:01;;;;;;;7.43;4.90;;;15.80;69.30;;;;;;5052616;28;20093;-67
2021/10/07 11:53:41;;;;;;;5.53;4.80;;;15.80;69.30;;;;;;5052545;28;20470;-68
2021/10/07 11:56:13;;;;;;;5.72;4.18;;;15.80;69.20;;;;;;5052812;28;20048;-67
2021/10/07 11:58:39;;;;;;;5.57;4.00;;;15.80;69.50;;;;;;5052719;28;20542;-67
2021/10/07 12:01:06;;;;;;;6.90;4.70;;;15.80;69.70;;;;;;5051468;28;20028;-66
2021/10/07 12:03:34;;;;;;;5.05;4.07;;;15.90;69.70;;;;;;5052047;28;20052;-67
2021/10/07 12:06:12;;;;;;;6.93;4.38;;;15.90;69.80;;;;;;5052560;28;20104;-67
2021/10/07 12:08:43;;;;;;;6.22;4.93;;;15.90;69.60;;;;;;5051403;28;20112;-67
2021/10/07 12:11:14;;;;;;;8.70;4.10;;;15.90;69.70;;;;;;5052598;28;20029;-67
2021/10/07 12:13:48;;;;;;;6.35;4.65;;;16.00;69.90;;;;;;5052814;28;20501;-67
2021/10/07 12:16:19;;;;;;;5.45;3.45;;;16.00;69.70;;;;;;5052467;28;20471;-67
2021/10/07 12:18:54;;;;;;;7.68;4.55;;;16.00;69.90;;;;;;5052541;28;20067;-67
2021/10/07 12:21:42;;;;;;;7.13;4.18;;;16.00;69.00;;;;;;5052568;28;20031;-66
2021/10/07 12:24:09;;;;;;;8.50;5.18;;;16.00;69.30;;;;;;5052592;28;20528;-67
2021/10/07 12:26:38;;;;;;;11.05;4.72;;;16.10;69.70;;;;;;5052312;28;20124;-67
2021/10/07 12:29:25;;;;;;;9.45;4.70;;;16.00;69.60;;;;;;5052971;28;20040;-67
2021/10/07 12:31:57;;;;;;;9.70;4.93;;;16.10;69.70;;;;;;5052273;28;20040;-69
2021/10/07 12:34:40;;;;;;;7.20;4.85;;;16.10;68.80;;;;;;5052439;28;20021;-68
2021/10/07 12:37:08;;;;;;;6.47;4.38;;;16.10;68.40;;;;;;5052440;28;20017;-68
2021/10/07 12:39:38;;;;;;;7.43;4.65;;;16.10;68.20;;;;;;5052370;28;20021;-70
2021/10/07 12:42:17;;;;;;;6.10;4.30;;;16.10;68.60;;;;;;5052235;28;20068;-66
2021/10/07 12:44:54;;;;;;;9.07;4.15;;;16.10;68.60;;;;;;5052335;28;20072;-66
2021/10/07 12:47:23;;;;;;;10.73;4.30;;;16.10;69.40;;;;;;5052201;28;20359;-68
2021/10/07 12:49:54;;;;;;;6.43;4.25;;;16.10;68.70;;;;;;5050819;28;20071;-67
2021/10/07 12:52:25;;;;;;;7.53;4.43;;;16.10;68.90;;;;;;5051958;28;20033;-67
2021/10/07 12:54:58;;;;;;;4.57;3.85;;;16.10;68.60;;;;;;5052173;28;20364;-68